GMTN/TTU METAR and TAF weather

Enter ICAO airport designator
Station Type Date Time Source
GMTN METAR 2018/12/13 15:00 UTC NOAA

GMTN 131500Z 26013KT 230V290 9999 SCT020 BKN033 15/08 Q1017 NOSIG


Station Type Date Time Source
GMTN Decoded METAR 2018/12/13 15:00 UTC NOAA

Tetuan / Sania Ramel, Morocco (GMTN) 35-35N 005-20W 10M
Dec 13, 2018 - 10:00 AM EST / 2018.12.13 1500 UTC
Wind: from the W (260 degrees) at 15 MPH (13 KT) (direction variable):0
Visibility: greater than 7 mile(s):0
Sky conditions: mostly cloudy
Temperature: 59 F (15 C)
Dew Point: 46 F (8 C)
Relative Humidity: 62%
Pressure (altimeter): 30.03 in. Hg (1017 hPa)
ob: GMTN 131500Z 26013KT 230V290 9999 SCT020 BKN033 15/08 Q1017 NOSIG
cycle: 15

Station Type Date Time Source
GMTN TAF UTC NOAA

Error!


Example: see airport list